createdAt,value
2018-12-07T06:58:15.358Z,44.00
2018-12-07T06:59:16.121Z,48.00
2018-12-07T07:00:15.410Z,48.00
2018-12-07T07:01:15.404Z,48.00
2018-12-07T07:02:15.362Z,52.00
2018-12-07T07:03:15.355Z,56.00
2018-12-07T07:04:15.382Z,60.00
2018-12-07T07:05:15.477Z,56.00
2018-12-07T07:06:15.496Z,56.00
2018-12-07T07:07:15.383Z,64.00
2018-12-07T07:08:15.437Z,60.00
2018-12-07T07:09:15.505Z,60.00
2018-12-07T07:10:15.399Z,64.00
2018-12-07T07:11:15.459Z,68.00
2018-12-07T07:12:15.405Z,84.00
2018-12-07T07:13:15.459Z,96.00
2018-12-07T07:14:15.454Z,104.00
2018-12-07T07:15:15.448Z,104.00
2018-12-07T07:16:22.902Z,108.00
2018-12-07T07:17:15.437Z,100.00
2018-12-07T07:18:15.460Z,96.00
2018-12-07T07:19:15.513Z,108.00
2018-12-07T07:20:15.512Z,100.00
2018-12-07T07:21:15.641Z,108.00
2018-12-07T07:22:15.736Z,120.00
2018-12-07T07:23:15.502Z,124.00
2018-12-07T07:24:15.493Z,124.00
2018-12-07T07:25:15.515Z,128.00
2018-12-07T07:26:15.510Z,136.00
2018-12-07T07:27:15.520Z,152.00
2018-12-07T07:28:15.524Z,164.00
2018-12-07T07:29:15.560Z,180.00
2018-12-07T07:30:15.524Z,172.00
2018-12-07T07:31:15.636Z,184.00
2018-12-07T07:32:15.570Z,232.00
2018-12-07T07:33:15.745Z,216.00
2018-12-07T07:34:15.686Z,232.00
2018-12-07T07:35:15.577Z,256.00
2018-12-07T07:36:15.575Z,240.00
2018-12-07T07:37:15.599Z,256.00
2018-12-07T07:38:15.606Z,252.00
2018-12-07T07:39:16.611Z,328.00
2018-12-07T07:40:15.698Z,336.00
2018-12-07T07:41:15.612Z,344.00
2018-12-07T07:42:15.614Z,364.00
2018-12-07T07:43:15.712Z,416.00
2018-12-07T07:44:15.788Z,428.00
2018-12-07T07:45:16.009Z,460.00
2018-12-07T07:46:15.696Z,420.00
2018-12-07T07:47:15.686Z,412.00
2018-12-07T07:48:15.667Z,460.00
2018-12-07T07:49:15.672Z,468.00
2018-12-07T07:50:15.684Z,468.00
2018-12-07T07:51:15.731Z,504.00
2018-12-07T07:52:15.703Z,496.00
2018-12-07T07:53:15.729Z,480.00
2018-12-07T07:54:15.733Z,468.00
2018-12-07T07:55:15.779Z,540.00
2018-12-07T07:56:15.806Z,604.00
2018-12-07T07:57:16.290Z,624.00
2018-12-07T07:58:15.743Z,616.00
2018-12-07T07:59:15.807Z,672.00
2018-12-07T08:00:16.622Z,644.00
2018-12-07T08:01:15.755Z,656.00
2018-12-07T08:02:16.134Z,688.00
2018-12-07T08:03:15.797Z,700.00
2018-12-07T08:04:15.823Z,808.00
2018-12-07T08:05:15.780Z,820.00
2018-12-07T08:06:15.866Z,832.00
2018-12-07T08:07:15.846Z,876.00
2018-12-07T08:08:15.843Z,932.00
2018-12-07T08:09:15.815Z,980.00
2018-12-07T08:10:15.891Z,1032.00
2018-12-07T08:11:15.871Z,1056.00
2018-12-07T08:12:15.862Z,1108.00
2018-12-07T08:13:15.882Z,1116.00
2018-12-07T08:14:15.895Z,1144.00
2018-12-07T08:15:15.858Z,1192.00
2018-12-07T08:16:15.863Z,1196.00
2018-12-07T08:17:15.889Z,1164.00
2018-12-07T08:18:15.917Z,1148.00
2018-12-07T08:19:15.923Z,1168.00
2018-12-07T08:20:15.927Z,1228.00
2018-12-07T08:21:15.926Z,1264.00
2018-12-07T08:22:15.963Z,1320.00
2018-12-07T08:23:15.954Z,1356.00
2018-12-07T08:24:16.050Z,1356.00
2018-12-07T08:25:15.945Z,1384.00
2018-12-07T08:26:15.934Z,1368.00
2018-12-07T08:27:16.602Z,1296.00
2018-12-07T08:28:16.006Z,1172.00
2018-12-07T08:29:15.988Z,1184.00
2018-12-07T08:30:16.002Z,1200.00
2018-12-07T08:31:15.970Z,1236.00
2018-12-07T08:32:16.014Z,1328.00
2018-12-07T08:33:16.104Z,1344.00
2018-12-07T08:34:16.019Z,1352.00
2018-12-07T08:35:16.025Z,1428.00
2018-12-07T08:36:16.028Z,1476.00
2018-12-07T08:37:16.030Z,1548.00
2018-12-07T08:38:16.098Z,1600.00
2018-12-07T08:39:16.123Z,1552.00
2018-12-07T08:40:16.037Z,1452.00
2018-12-07T08:41:16.058Z,1484.00
2018-12-07T08:42:16.073Z,1412.00
2018-12-07T08:43:16.681Z,1440.00
2018-12-07T08:44:16.138Z,1360.00
2018-12-07T08:45:16.092Z,1260.00
2018-12-07T08:46:16.098Z,1300.00
2018-12-07T08:47:16.100Z,1300.00
2018-12-07T08:48:16.104Z,1336.00
2018-12-07T08:49:16.140Z,1504.00
2018-12-07T08:50:16.271Z,1728.00
2018-12-07T08:51:16.182Z,1708.00
2018-12-07T08:52:16.141Z,2044.00
2018-12-07T08:53:16.173Z,2252.00
2018-12-07T08:54:17.101Z,2348.00
2018-12-07T08:55:16.257Z,2276.00
2018-12-07T08:56:16.171Z,2220.00
2018-12-07T08:57:16.206Z,2304.00
2018-12-07T08:58:16.225Z,2296.00
2018-12-07T08:59:16.195Z,2228.00
2018-12-07T09:00:16.279Z,2420.00
2018-12-07T09:01:16.241Z,2376.00
2018-12-07T09:02:16.208Z,2392.00
2018-12-07T09:03:16.252Z,2360.00
2018-12-07T09:04:16.253Z,2556.00
2018-12-07T09:05:16.361Z,2724.00
2018-12-07T09:06:16.231Z,2568.00
2018-12-07T09:07:17.720Z,2576.00
2018-12-07T09:08:16.308Z,2608.00
2018-12-07T09:09:16.291Z,2568.00
2018-12-07T09:10:16.289Z,2460.00
2018-12-07T09:11:16.312Z,2368.00
2018-12-07T09:12:16.360Z,2132.00
2018-12-07T09:13:16.362Z,1944.00
2018-12-07T09:14:16.314Z,1824.00
2018-12-07T09:15:16.531Z,1776.00
2018-12-07T09:16:16.324Z,1808.00
2018-12-07T09:17:16.462Z,1768.00
2018-12-07T09:18:16.356Z,1708.00
2018-12-07T09:19:16.424Z,1716.00
2018-12-07T09:20:16.526Z,1680.00
2018-12-07T09:21:16.371Z,1716.00
2018-12-07T09:22:16.378Z,1764.00
2018-12-07T09:23:16.402Z,1820.00
2018-12-07T09:24:16.407Z,1920.00
2018-12-07T09:25:16.413Z,2076.00
2018-12-07T09:26:16.412Z,2212.00
2018-12-07T09:27:16.412Z,2256.00
2018-12-07T09:28:16.527Z,2572.00
2018-12-07T09:29:16.446Z,2760.00
2018-12-07T09:30:16.441Z,2948.00
2018-12-07T09:31:16.513Z,3104.00
2018-12-07T09:32:16.450Z,3108.00
2018-12-07T09:33:16.491Z,2764.00
2018-12-07T09:34:16.507Z,2584.00
2018-12-07T09:35:16.466Z,2340.00
2018-12-07T09:36:16.484Z,2272.00
2018-12-07T09:37:17.174Z,2352.00
2018-12-07T09:38:16.497Z,2256.00
2018-12-07T09:39:16.644Z,2316.00
2018-12-07T09:40:16.551Z,2196.00
2018-12-07T09:41:16.516Z,1960.00
2018-12-07T09:42:17.165Z,1784.00
2018-12-07T09:43:16.562Z,1928.00
2018-12-07T09:44:16.626Z,2176.00
2018-12-07T09:45:16.630Z,2172.00
2018-12-07T09:46:17.164Z,2244.00
2018-12-07T09:47:16.570Z,2096.00
2018-12-07T09:48:16.636Z,2156.00
2018-12-07T09:49:16.658Z,2236.00
2018-12-07T09:50:16.669Z,2176.00
2018-12-07T09:51:16.615Z,2368.00
2018-12-07T09:52:16.609Z,2248.00
2018-12-07T09:53:16.740Z,2240.00
2018-12-07T09:54:16.666Z,2388.00
2018-12-07T09:55:16.659Z,2024.00
2018-12-07T09:56:16.691Z,2076.00
2018-12-07T09:57:16.671Z,2036.00
2018-12-07T09:58:16.680Z,1924.00
2018-12-07T09:59:16.663Z,1808.00
2018-12-07T10:00:17.613Z,1592.00
2018-12-07T10:01:16.686Z,1772.00
2018-12-07T10:02:16.798Z,1860.00
2018-12-07T10:03:16.702Z,1984.00
2018-12-07T10:04:16.714Z,1824.00
2018-12-07T10:05:17.589Z,1952.00
2018-12-07T10:06:16.722Z,1688.00
2018-12-07T10:07:16.836Z,2064.00
2018-12-07T10:08:16.804Z,2320.00
2018-12-07T10:09:16.759Z,2476.00
2018-12-07T10:10:16.743Z,2620.00
2018-12-07T10:11:16.795Z,2660.00
2018-12-07T10:12:16.768Z,2484.00
2018-12-07T10:13:16.769Z,2204.00
2018-12-07T10:14:16.780Z,2332.00
2018-12-07T10:15:16.873Z,2540.00
2018-12-07T10:16:16.932Z,2672.00
2018-12-07T10:17:16.803Z,2632.00
2018-12-07T10:18:16.809Z,3040.00
2018-12-07T10:19:16.896Z,3256.00
2018-12-07T10:20:16.819Z,3184.00
2018-12-07T10:21:16.871Z,3140.00
2018-12-07T10:22:16.841Z,3328.00
2018-12-07T10:23:16.877Z,3400.00
2018-12-07T10:24:16.864Z,3316.00
2018-12-07T10:25:16.910Z,3340.00
2018-12-07T10:26:16.893Z,3392.00
2018-12-07T10:27:16.983Z,3404.00
2018-12-07T10:28:16.924Z,3628.00
2018-12-07T10:29:16.919Z,3852.00
2018-12-07T10:30:17.152Z,3824.00
2018-12-07T10:31:16.932Z,3828.00
2018-12-07T10:32:16.943Z,3924.00
2018-12-07T10:33:16.947Z,3704.00
2018-12-07T10:34:16.963Z,3552.00
2018-12-07T10:35:16.982Z,3496.00
2018-12-07T10:36:17.130Z,3252.00
2018-12-07T10:37:17.106Z,3064.00
2018-12-07T10:38:16.967Z,3212.00
2018-12-07T10:39:16.998Z,3120.00
2018-12-07T10:40:16.999Z,2960.00
2018-12-07T10:41:17.059Z,2964.00
2018-12-07T10:42:17.015Z,2980.00
2018-12-07T10:43:17.082Z,2856.00
2018-12-07T10:44:17.033Z,3136.00
2018-12-07T10:45:17.074Z,2984.00
2018-12-07T10:46:17.093Z,2948.00
2018-12-07T10:47:17.040Z,2688.00
2018-12-07T10:48:17.208Z,2672.00
2018-12-07T10:49:17.206Z,2872.00
2018-12-07T10:50:17.120Z,2852.00
2018-12-07T10:51:17.220Z,2656.00
2018-12-07T10:52:17.135Z,2860.00
2018-12-07T10:53:17.153Z,3004.00
2018-12-07T10:54:17.157Z,3064.00
2018-12-07T10:55:17.134Z,2992.00
2018-12-07T10:56:17.230Z,2992.00
2018-12-07T10:57:17.147Z,2980.00
2018-12-07T10:58:17.154Z,2924.00
2018-12-07T10:59:17.188Z,2824.00
2018-12-07T11:00:22.698Z,2688.00
2018-12-07T11:01:17.172Z,2652.00
2018-12-07T11:02:17.184Z,2604.00
2018-12-07T11:03:17.193Z,2688.00
2018-12-07T11:04:17.405Z,2732.00
2018-12-07T11:05:17.215Z,2556.00
2018-12-07T11:06:17.205Z,2376.00
2018-12-07T11:07:17.221Z,2240.00
2018-12-07T11:08:17.260Z,2196.00
2018-12-07T11:09:17.346Z,2304.00
2018-12-07T11:10:17.297Z,2312.00
2018-12-07T11:11:17.273Z,2288.00
2018-12-07T11:12:17.333Z,2340.00
2018-12-07T11:13:17.313Z,2276.00
2018-12-07T11:14:17.319Z,2288.00
2018-12-07T11:15:17.344Z,2288.00
2018-12-07T11:16:17.387Z,2288.00
2018-12-07T11:17:17.325Z,2340.00
2018-12-07T11:18:17.334Z,2392.00
2018-12-07T11:19:17.322Z,2412.00
2018-12-07T11:20:17.348Z,2440.00
2018-12-07T11:21:17.338Z,2608.00
2018-12-07T11:22:17.446Z,2632.00
2018-12-07T11:23:17.451Z,2760.00
2018-12-07T11:24:17.470Z,2840.00
2018-12-07T11:25:17.398Z,3264.00
2018-12-07T11:26:17.559Z,3648.00
2018-12-07T11:27:17.482Z,3748.00
2018-12-07T11:28:17.470Z,3628.00
2018-12-07T11:29:17.554Z,3740.00
2018-12-07T11:30:17.435Z,3676.00
2018-12-07T11:31:17.521Z,3572.00
2018-12-07T11:32:17.484Z,3488.00
2018-12-07T11:33:17.440Z,3324.00
2018-12-07T11:34:17.566Z,3176.00
2018-12-07T11:35:17.667Z,2936.00
2018-12-07T11:36:17.517Z,2828.00
2018-12-07T11:37:17.587Z,2784.00
2018-12-07T11:38:17.571Z,2492.00
2018-12-07T11:39:17.578Z,2164.00
2018-12-07T11:40:17.535Z,2080.00
2018-12-07T11:41:17.509Z,2016.00
2018-12-07T11:42:17.569Z,1976.00
2018-12-07T11:43:17.566Z,1956.00
2018-12-07T11:44:17.583Z,1968.00
2018-12-07T11:45:17.580Z,2032.00
2018-12-07T11:46:17.662Z,2092.00
2018-12-07T11:47:17.557Z,2120.00
2018-12-07T11:48:17.597Z,2060.00
2018-12-07T11:49:17.579Z,2040.00
2018-12-07T11:50:17.570Z,2044.00
2018-12-07T11:51:18.153Z,2032.00
2018-12-07T11:52:17.648Z,2008.00
2018-12-07T11:53:17.707Z,1920.00
2018-12-07T11:54:17.610Z,1844.00
2018-12-07T11:55:18.683Z,1824.00
2018-12-07T11:56:17.749Z,1840.00
2018-12-07T11:57:17.826Z,1816.00
2018-12-07T11:58:17.672Z,1844.00
2018-12-07T11:59:17.664Z,1924.00
2018-12-07T12:00:17.771Z,2016.00
2018-12-07T12:01:17.686Z,2036.00
2018-12-07T12:02:17.699Z,1996.00
2018-12-07T12:03:17.772Z,1948.00
2018-12-07T12:04:17.784Z,1904.00
2018-12-07T12:05:17.732Z,1852.00
2018-12-07T12:06:17.738Z,1816.00
2018-12-07T12:07:17.749Z,1752.00
2018-12-07T12:08:17.959Z,1708.00
2018-12-07T12:09:17.755Z,1644.00
2018-12-07T12:10:17.794Z,1692.00
2018-12-07T12:11:17.772Z,1792.00
2018-12-07T12:12:17.778Z,1704.00
2018-12-07T12:13:17.782Z,1628.00
2018-12-07T12:14:17.823Z,1552.00
2018-12-07T12:15:17.793Z,1384.00
2018-12-07T12:16:17.803Z,1284.00
2018-12-07T12:17:17.945Z,1340.00
2018-12-07T12:18:17.828Z,1176.00
2018-12-07T12:19:17.969Z,1348.00
2018-12-07T12:20:17.936Z,1236.00
2018-12-07T12:21:17.846Z,1268.00
2018-12-07T12:22:17.858Z,1336.00
2018-12-07T12:23:17.875Z,1372.00
2018-12-07T12:24:17.888Z,1444.00
2018-12-07T12:25:17.999Z,1476.00
2018-12-07T12:26:18.016Z,1384.00
2018-12-07T12:27:17.920Z,1292.00
2018-12-07T12:28:17.916Z,1344.00
2018-12-07T12:29:17.936Z,1252.00
2018-12-07T12:30:18.014Z,1220.00
2018-12-07T12:31:17.951Z,1152.00
2018-12-07T12:32:17.960Z,1176.00
2018-12-07T12:33:18.026Z,1128.00
2018-12-07T12:34:18.018Z,1164.00
2018-12-07T12:35:17.982Z,1300.00
2018-12-07T12:36:18.126Z,1264.00
2018-12-07T12:37:17.978Z,1464.00
2018-12-07T12:38:17.985Z,1428.00
2018-12-07T12:39:17.991Z,1280.00
2018-12-07T12:40:18.041Z,1384.00
2018-12-07T12:41:18.160Z,1432.00
2018-12-07T12:42:18.048Z,1404.00
2018-12-07T12:43:18.047Z,1404.00
2018-12-07T12:44:18.189Z,1340.00
2018-12-07T12:45:18.041Z,1372.00
2018-12-07T12:46:18.049Z,1364.00
2018-12-07T12:47:18.274Z,1396.00
2018-12-07T12:48:18.167Z,1496.00
2018-12-07T12:49:18.076Z,1444.00
2018-12-07T12:50:18.076Z,1828.00
2018-12-07T12:51:18.141Z,1780.00
2018-12-07T12:52:18.175Z,1680.00
2018-12-07T12:53:18.210Z,1800.00
2018-12-07T12:54:18.108Z,1592.00
2018-12-07T12:55:18.138Z,1444.00
2018-12-07T12:56:18.150Z,1200.00
2018-12-07T12:57:18.151Z,1144.00
2018-12-07T12:58:18.173Z,1036.00
2018-12-07T12:59:18.314Z,812.00
2018-12-07T13:00:18.199Z,736.00
2018-12-07T13:01:18.199Z,716.00
2018-12-07T13:02:18.211Z,664.00
2018-12-07T13:03:18.275Z,708.00
2018-12-07T13:04:18.205Z,832.00
2018-12-07T13:05:18.199Z,900.00
2018-12-07T13:06:18.234Z,920.00
2018-12-07T13:07:18.252Z,920.00
2018-12-07T13:08:18.275Z,1052.00
2018-12-07T13:09:18.275Z,1256.00
2018-12-07T13:10:18.281Z,1308.00
2018-12-07T13:11:18.407Z,1440.00
2018-12-07T13:12:18.254Z,1508.00
2018-12-07T13:13:18.284Z,1380.00
2018-12-07T13:14:18.433Z,1380.00
2018-12-07T13:15:18.352Z,1452.00
2018-12-07T13:16:18.307Z,1484.00
2018-12-07T13:17:18.311Z,1372.00
2018-12-07T13:18:18.351Z,1252.00
2018-12-07T13:19:18.656Z,1248.00
2018-12-07T13:20:18.353Z,1332.00
2018-12-07T13:21:18.353Z,1192.00
2018-12-07T13:22:18.394Z,1176.00
2018-12-07T13:23:18.530Z,1072.00
2018-12-07T13:24:18.412Z,996.00
2018-12-07T13:25:18.409Z,860.00
2018-12-07T13:26:18.409Z,792.00
2018-12-07T13:27:18.534Z,780.00
2018-12-07T13:28:18.397Z,904.00
2018-12-07T13:29:18.387Z,708.00
2018-12-07T13:30:18.690Z,680.00
2018-12-07T13:31:19.131Z,708.00
2018-12-07T13:32:18.487Z,664.00
2018-12-07T13:33:18.437Z,536.00
2018-12-07T13:34:18.460Z,580.00
2018-12-07T13:35:18.450Z,604.00
2018-12-07T13:36:18.483Z,644.00
2018-12-07T13:37:18.475Z,604.00
2018-12-07T13:38:18.509Z,668.00
2018-12-07T13:39:18.478Z,672.00
2018-12-07T13:40:18.710Z,668.00
2018-12-07T13:41:18.649Z,608.00
2018-12-07T13:42:18.627Z,600.00
2018-12-07T13:43:18.549Z,500.00
2018-12-07T13:44:18.835Z,532.00
2018-12-07T13:45:18.790Z,580.00
2018-12-07T13:46:18.707Z,496.00
2018-12-07T13:47:18.801Z,484.00
2018-12-07T13:48:18.869Z,520.00
2018-12-07T13:49:18.827Z,472.00
2018-12-07T13:50:18.712Z,532.00
2018-12-07T13:51:18.672Z,568.00
2018-12-07T13:52:18.664Z,664.00
2018-12-07T13:53:18.694Z,620.00
2018-12-07T13:54:18.850Z,596.00
2018-12-07T13:55:18.806Z,528.00
2018-12-07T13:56:18.877Z,548.00
2018-12-07T13:57:18.728Z,500.00
2018-12-07T13:58:18.993Z,628.00
2018-12-07T13:59:18.866Z,664.00
2018-12-07T14:00:18.928Z,692.00
2018-12-07T14:01:18.819Z,684.00
2018-12-07T14:02:19.720Z,692.00
2018-12-07T14:03:18.775Z,636.00
2018-12-07T14:04:18.787Z,736.00
2018-12-07T14:05:18.865Z,752.00
2018-12-07T14:06:18.779Z,756.00
2018-12-07T14:07:18.886Z,660.00
2018-12-07T14:08:18.852Z,568.00
2018-12-07T14:09:19.153Z,576.00
2018-12-07T14:10:18.841Z,540.00
2018-12-07T14:11:18.750Z,636.00
2018-12-07T14:12:18.801Z,620.00
2018-12-07T14:13:18.857Z,628.00
2018-12-07T14:14:18.917Z,628.00
2018-12-07T14:15:19.195Z,532.00
2018-12-07T14:16:19.035Z,492.00
2018-12-07T14:17:18.936Z,564.00
2018-12-07T14:18:18.855Z,524.00
2018-12-07T14:19:18.891Z,456.00
2018-12-07T14:20:18.874Z,484.00
2018-12-07T14:21:19.118Z,464.00
2018-12-07T14:22:18.953Z,372.00
2018-12-07T14:23:18.986Z,316.00
2018-12-07T14:24:18.859Z,324.00
2018-12-07T14:25:18.946Z,312.00
2018-12-07T14:26:18.989Z,256.00
2018-12-07T14:27:19.067Z,280.00
2018-12-07T14:28:18.935Z,244.00
2018-12-07T14:29:19.049Z,228.00
2018-12-07T14:30:18.893Z,248.00
2018-12-07T14:31:19.306Z,236.00
2018-12-07T14:32:19.014Z,204.00
2018-12-07T14:33:19.523Z,192.00
2018-12-07T14:34:19.215Z,172.00
2018-12-07T14:35:18.969Z,164.00
2018-12-07T14:36:19.017Z,200.00
2018-12-07T14:37:19.011Z,176.00
2018-12-07T14:38:19.182Z,160.00
2018-12-07T14:39:19.249Z,176.00
2018-12-07T14:40:19.085Z,144.00
2018-12-07T14:41:19.105Z,144.00
2018-12-07T14:42:19.090Z,140.00
2018-12-07T14:43:19.161Z,132.00
2018-12-07T14:44:19.164Z,128.00
2018-12-07T14:45:19.031Z,120.00
2018-12-07T14:46:19.080Z,108.00
2018-12-07T14:47:19.193Z,84.00
2018-12-07T14:48:19.945Z,80.00
2018-12-07T14:49:19.108Z,80.00
2018-12-07T14:50:19.126Z,60.00
2018-12-07T14:51:19.307Z,84.00
2018-12-07T14:52:19.177Z,84.00
2018-12-07T14:53:19.143Z,76.00
2018-12-07T14:54:19.206Z,88.00
2018-12-07T14:55:19.935Z,80.00
2018-12-07T14:56:20.882Z,72.00
2018-12-07T14:57:19.318Z,68.00
2018-12-07T14:58:19.121Z,60.00
2018-12-07T14:59:20.083Z,56.00
2018-12-07T15:00:19.265Z,56.00
2018-12-07T15:01:19.329Z,48.00
2018-12-07T15:02:19.211Z,40.00
2018-12-07T15:03:19.269Z,36.00
2018-12-07T15:04:19.297Z,36.00
2018-12-07T15:05:19.328Z,32.00
2018-12-07T15:06:19.372Z,24.00
2018-12-07T15:07:19.220Z,24.00
2018-12-07T15:08:19.417Z,20.00
2018-12-07T15:09:19.200Z,20.00
2018-12-07T15:10:19.237Z,16.00
2018-12-07T15:11:19.762Z,16.00
2018-12-07T15:12:19.227Z,12.00
2018-12-07T15:13:19.227Z,12.00
2018-12-07T15:14:19.284Z,8.00
2018-12-07T15:15:19.333Z,8.00
2018-12-07T15:16:19.317Z,8.00
2018-12-07T15:17:19.372Z,8.00
2018-12-07T15:18:19.657Z,4.00
2018-12-07T15:19:19.394Z,4.00
2018-12-07T15:20:19.389Z,4.00
2018-12-07T15:21:19.332Z,4.00
2018-12-07T15:22:19.660Z,4.00
2018-12-07T15:23:19.542Z,4.00
2018-12-07T15:24:19.363Z,0.00
2018-12-07T15:25:19.616Z,0.00
2018-12-07T15:26:20.221Z,0.00
2018-12-07T15:27:19.477Z,0.00
2018-12-07T15:28:19.628Z,0.00
2018-12-07T15:29:19.524Z,0.00
2018-12-07T15:30:19.605Z,0.00
2018-12-07T15:31:20.268Z,0.00
2018-12-07T15:32:19.785Z,0.00
2018-12-07T15:33:20.021Z,0.00
2018-12-07T15:34:19.772Z,0.00
2018-12-07T15:35:19.447Z,0.00
2018-12-07T15:36:19.606Z,0.00
2018-12-07T15:37:19.490Z,0.00
2018-12-07T15:38:19.429Z,0.00
2018-12-07T15:39:19.630Z,0.00
2018-12-07T15:40:19.580Z,0.00
2018-12-07T15:41:20.551Z,0.00
2018-12-07T15:42:19.600Z,0.00
2018-12-07T15:43:19.494Z,0.00
2018-12-07T15:44:19.516Z,0.00
2018-12-07T15:45:19.605Z,0.00
2018-12-07T15:46:19.631Z,0.00
2018-12-07T15:47:19.545Z,0.00
2018-12-07T15:48:19.589Z,0.00
2018-12-07T15:49:19.514Z,0.00
2018-12-07T15:50:25.050Z,0.00
2018-12-07T15:51:19.722Z,0.00
2018-12-07T15:52:19.614Z,0.00
2018-12-07T15:53:19.548Z,0.00
2018-12-07T15:54:19.655Z,0.00
2018-12-07T15:55:19.656Z,0.00
2018-12-07T15:56:19.601Z,0.00
2018-12-07T15:57:19.610Z,0.00
2018-12-07T15:58:19.714Z,0.00
2018-12-07T15:59:19.585Z,0.00
2018-12-07T16:00:19.685Z,0.00
2018-12-07T16:01:19.682Z,0.00
2018-12-07T16:02:19.687Z,0.00
2018-12-07T16:03:19.636Z,0.00
2018-12-07T16:04:19.785Z,0.00
2018-12-07T16:05:19.639Z,0.00
2018-12-07T16:06:19.662Z,0.00
2018-12-07T16:07:19.721Z,0.00
2018-12-07T16:08:24.969Z,0.00
2018-12-07T16:09:19.918Z,0.00
2018-12-07T16:10:19.792Z,0.00
2018-12-07T16:11:19.779Z,0.00
2018-12-07T16:12:19.746Z,0.00
2018-12-07T16:13:19.780Z,0.00
2018-12-07T16:14:19.914Z,0.00
2018-12-07T16:15:19.724Z,0.00
2018-12-07T16:16:19.807Z,0.00
2018-12-07T16:17:19.964Z,0.00
2018-12-07T16:18:19.876Z,0.00
2018-12-07T16:19:19.958Z,0.00
2018-12-07T16:20:19.877Z,0.00
2018-12-07T16:21:19.889Z,0.00
2018-12-07T16:22:19.987Z,0.00
2018-12-07T16:23:20.093Z,0.00
2018-12-07T16:24:20.089Z,0.00
2018-12-07T16:25:19.845Z,0.00
2018-12-07T16:26:19.982Z,0.00
2018-12-07T16:27:19.944Z,0.00
2018-12-07T16:28:20.028Z,0.00
2018-12-07T16:29:20.109Z,0.00
2018-12-07T16:30:19.992Z,0.00
2018-12-07T16:31:19.835Z,0.00
2018-12-07T16:32:19.894Z,0.00
2018-12-07T16:33:20.053Z,0.00
2018-12-07T16:34:19.896Z,0.00
2018-12-07T16:35:20.029Z,0.00
2018-12-07T16:36:19.954Z,0.00
2018-12-07T16:37:20.015Z,0.00
2018-12-07T16:38:20.045Z,0.00
2018-12-07T16:39:19.933Z,0.00
2018-12-07T16:40:19.984Z,0.00
2018-12-07T16:41:20.201Z,0.00
2018-12-07T16:42:19.957Z,0.00
2018-12-07T16:43:19.968Z,0.00
2018-12-07T16:44:20.031Z,0.00
2018-12-07T16:45:20.208Z,0.00
2018-12-07T16:46:19.998Z,0.00
2018-12-07T16:47:20.078Z,0.00
2018-12-07T16:48:19.986Z,0.00
2018-12-07T16:49:20.019Z,0.00
2018-12-07T16:50:19.971Z,0.00
2018-12-07T16:51:20.140Z,0.00
2018-12-07T16:52:20.022Z,0.00
2018-12-07T16:53:20.084Z,0.00
2018-12-07T16:54:20.100Z,0.00
2018-12-07T16:55:20.071Z,0.00
2018-12-07T16:56:20.052Z,0.00
2018-12-07T16:57:20.113Z,0.00
2018-12-07T16:58:20.074Z,0.00
2018-12-07T16:59:20.128Z,0.00
2018-12-07T17:00:20.280Z,0.00
2018-12-07T17:01:20.149Z,0.00
2018-12-07T17:02:20.152Z,0.00
2018-12-07T17:03:20.151Z,0.00
2018-12-07T17:04:20.157Z,0.00
2018-12-07T17:05:20.223Z,0.00
2018-12-07T17:06:20.468Z,0.00
2018-12-07T17:07:20.125Z,0.00
2018-12-07T17:08:20.374Z,0.00
2018-12-07T17:09:20.139Z,0.00
2018-12-07T17:10:20.358Z,0.00
2018-12-07T17:11:20.328Z,0.00
2018-12-07T17:12:20.337Z,0.00
2018-12-07T17:13:20.260Z,0.00
2018-12-07T17:14:20.209Z,0.00
2018-12-07T17:15:20.176Z,0.00
2018-12-07T17:16:20.187Z,0.00
2018-12-07T17:17:20.393Z,0.00
2018-12-07T17:18:20.312Z,0.00
2018-12-07T17:19:20.255Z,0.00
2018-12-07T17:20:20.227Z,0.00
2018-12-07T17:21:20.205Z,0.00
2018-12-07T17:22:20.237Z,0.00
2018-12-07T17:23:20.317Z,0.00
2018-12-07T17:24:20.346Z,0.00
2018-12-07T17:25:20.296Z,0.00
2018-12-07T17:26:20.401Z,0.00
2018-12-07T17:27:20.524Z,0.00
2018-12-07T17:28:20.461Z,0.00
2018-12-07T17:29:20.617Z,0.00
2018-12-07T17:30:20.310Z,0.00
2018-12-07T17:31:20.357Z,0.00
2018-12-07T17:32:20.483Z,0.00
2018-12-07T17:33:20.305Z,0.00
2018-12-07T17:34:20.538Z,0.00
2018-12-07T17:35:20.434Z,0.00
2018-12-07T17:36:20.363Z,0.00
2018-12-07T17:37:20.505Z,0.00
2018-12-07T17:38:20.438Z,0.00
2018-12-07T17:39:20.641Z,0.00
2018-12-07T17:40:20.558Z,0.00
2018-12-07T17:41:20.584Z,0.00
2018-12-07T17:42:20.431Z,0.00
2018-12-07T17:43:20.737Z,0.00
2018-12-07T17:44:20.385Z,0.00
2018-12-07T17:45:20.520Z,0.00
2018-12-07T17:46:20.627Z,0.00
2018-12-07T17:47:20.499Z,0.00
2018-12-07T17:48:20.428Z,0.00
2018-12-07T17:49:20.501Z,0.00
2018-12-07T17:50:22.312Z,0.00
2018-12-07T17:51:20.459Z,0.00
2018-12-07T17:52:20.735Z,0.00
2018-12-07T17:53:20.611Z,0.00
2018-12-07T17:54:20.574Z,0.00
2018-12-07T17:55:20.793Z,0.00
2018-12-07T17:56:20.720Z,0.00
2018-12-07T17:57:20.709Z,0.00
2018-12-07T17:58:20.538Z,0.00
2018-12-07T17:59:20.560Z,0.00
2018-12-07T18:00:20.587Z,0.00
2018-12-07T18:01:20.547Z,0.00
2018-12-07T18:02:20.554Z,0.00
2018-12-07T18:03:20.558Z,0.00
2018-12-07T18:04:20.610Z,0.00
2018-12-07T18:05:20.767Z,0.00
2018-12-07T18:06:20.759Z,0.00
2018-12-07T18:07:20.845Z,0.00
2018-12-07T18:08:20.652Z,0.00
2018-12-07T18:09:20.589Z,0.00
2018-12-07T18:10:20.586Z,0.00
2018-12-07T18:11:20.851Z,0.00
2018-12-07T18:12:20.610Z,0.00
2018-12-07T18:13:20.795Z,0.00
2018-12-07T18:14:20.702Z,0.00
2018-12-07T18:15:20.661Z,0.00
2018-12-07T18:16:20.891Z,0.00
2018-12-07T18:17:20.643Z,0.00
2018-12-07T18:18:20.741Z,0.00
2018-12-07T18:19:20.835Z,0.00
2018-12-07T18:20:20.718Z,0.00
2018-12-07T18:21:20.739Z,0.00
2018-12-07T18:22:20.685Z,0.00
2018-12-07T18:23:20.705Z,0.00
2018-12-07T18:24:20.781Z,0.00
2018-12-07T18:25:20.808Z,0.00
2018-12-07T18:26:20.981Z,0.00
2018-12-07T18:27:20.971Z,0.00
2018-12-07T18:28:20.735Z,0.00
2018-12-07T18:29:20.997Z,0.00
2018-12-07T18:30:20.777Z,0.00
2018-12-07T18:31:20.896Z,0.00
2018-12-07T18:32:20.996Z,0.00
2018-12-07T18:33:20.757Z,0.00
2018-12-07T18:34:20.937Z,0.00
2018-12-07T18:35:20.831Z,0.00
2018-12-07T18:36:20.961Z,0.00
2018-12-07T18:37:20.830Z,0.00
2018-12-07T18:38:20.818Z,0.00
2018-12-07T18:39:20.815Z,0.00
2018-12-07T18:40:20.836Z,0.00
2018-12-07T18:41:20.939Z,0.00
2018-12-07T18:42:20.836Z,0.00
2018-12-07T18:43:21.106Z,0.00
2018-12-07T18:44:21.105Z,0.00
2018-12-07T18:45:20.993Z,0.00
2018-12-07T18:46:20.979Z,0.00
2018-12-07T19:01:38.189Z,0.00
2018-12-07T19:02:38.062Z,0.00
2018-12-07T19:03:38.141Z,0.00
2018-12-07T19:04:38.056Z,0.00
2018-12-07T19:05:38.082Z,0.00
2018-12-07T19:06:38.000Z,0.00
2018-12-07T19:07:38.003Z,0.00
2018-12-07T19:08:38.104Z,0.00
2018-12-07T19:09:38.201Z,0.00
2018-12-07T19:10:38.153Z,0.00
2018-12-07T19:11:38.008Z,0.00
2018-12-07T19:12:38.199Z,0.00
2018-12-07T19:13:38.299Z,0.00
2018-12-07T19:14:38.048Z,0.00
2018-12-07T19:15:38.262Z,0.00
2018-12-07T19:16:38.176Z,0.00
2018-12-07T19:17:38.025Z,0.00
2018-12-07T19:18:38.764Z,0.00
2018-12-07T19:19:38.216Z,0.00
2018-12-07T19:20:38.051Z,0.00
2018-12-07T19:21:38.766Z,0.00
2018-12-07T19:22:38.162Z,0.00
2018-12-07T19:23:38.089Z,0.00
2018-12-07T19:24:38.736Z,0.00
2018-12-07T19:25:38.366Z,0.00
2018-12-07T19:26:38.472Z,0.00
2018-12-07T19:27:38.280Z,0.00
2018-12-07T19:28:38.176Z,0.00
2018-12-07T19:29:38.344Z,0.00
2018-12-07T19:30:38.287Z,0.00
2018-12-07T19:31:38.196Z,0.00
2018-12-07T19:32:38.212Z,0.00
2018-12-07T19:33:38.196Z,0.00
2018-12-07T19:34:38.277Z,0.00
2018-12-07T19:35:39.134Z,0.00
2018-12-07T19:36:38.449Z,0.00
2018-12-07T19:37:38.577Z,0.00
2018-12-07T19:38:38.616Z,0.00
2018-12-07T19:39:38.836Z,0.00
2018-12-07T19:40:38.530Z,0.00
2018-12-07T19:41:40.870Z,0.00
2018-12-07T19:42:38.379Z,0.00
2018-12-07T19:43:39.403Z,0.00
2018-12-07T19:44:38.707Z,0.00
2018-12-07T19:45:38.689Z,0.00
2018-12-07T19:46:38.462Z,0.00
2018-12-07T19:47:38.465Z,0.00
2018-12-07T19:48:38.506Z,0.00